Time;durP1;ratioP1;P1;durP2;ratioP2;P2;SDS_P1;SDS_P2;PMS_P1;PMS_P2;Temp;Humidity;BMP_temperature;BMP_pressure;BME280_temperature;BME280_humidity;BME280_pressure;Samples;Min_cycle;Max_cycle;Signal;HPM_P1;HPM_P2
2024/01/19 00:00:15;;;;;;;1.42;0.90;;;0.70;99.90;;;;;;5032472;28;20457;-68
2024/01/19 00:02:40;;;;;;;0.70;0.65;;;0.80;99.90;;;;;;5031742;28;20599;-67
2024/01/19 00:05:06;;;;;;;0.80;0.70;;;0.80;99.90;;;;;;5014733;28;20049;-66
2024/01/19 00:07:32;;;;;;;0.70;0.60;;;0.80;99.90;;;;;;5014686;28;20041;-67
2024/01/19 00:09:58;;;;;;;1.08;0.57;;;0.80;99.90;;;;;;5014432;28;20203;-67
2024/01/19 00:12:23;;;;;;;0.40;0.40;;;0.70;99.90;;;;;;5014351;28;20098;-67
2024/01/19 00:14:49;;;;;;;0.50;0.50;;;0.60;99.90;;;;;;5032124;28;20438;-66
2024/01/19 00:17:15;;;;;;;0.63;0.50;;;0.60;99.90;;;;;;5014388;28;20077;-64
2024/01/19 00:19:41;;;;;;;0.50;0.50;;;0.50;99.90;;;;;;5032139;28;20128;-64
2024/01/19 00:22:06;;;;;;;0.45;0.45;;;1.10;99.90;;;;;;5031953;28;20594;-63
2024/01/19 00:24:32;;;;;;;0.60;0.60;;;0.50;99.90;;;;;;5032094;28;20379;-64
2024/01/19 00:26:58;;;;;;;0.40;0.40;;;0.50;99.90;;;;;;5032136;28;20049;-63
2024/01/19 00:29:23;;;;;;;0.45;0.45;;;0.60;99.90;;;;;;5032015;28;20397;-67
2024/01/19 00:31:50;;;;;;;0.40;0.40;;;0.50;99.90;;;;;;5031746;28;20045;-63
2024/01/19 00:34:16;;;;;;;0.73;0.60;;;0.50;99.90;;;;;;5031758;28;20041;-63
2024/01/19 00:36:42;;;;;;;0.60;0.60;;;0.50;99.90;;;;;;5031598;28;20042;-64
2024/01/19 00:39:08;;;;;;;0.40;0.40;;;0.40;99.90;;;;;;5014390;28;20052;-66
2024/01/19 00:41:35;;;;;;;0.57;0.50;;;0.50;99.90;;;;;;5031673;28;20041;-66
2024/01/19 00:44:07;;;;;;;1.17;0.50;;;0.50;99.90;;;;;;5031512;28;20064;-67
2024/01/19 00:46:47;;;;;;;0.88;0.60;;;0.80;99.90;;;;;;5013876;28;20092;-66
2024/01/19 00:49:13;;;;;;;0.70;0.60;;;0.50;99.90;;;;;;5031732;28;20045;-66
2024/01/19 00:51:38;;;;;;;0.50;0.50;;;0.50;99.90;;;;;;5031718;28;20572;-67
2024/01/19 00:54:04;;;;;;;1.17;0.70;;;0.50;99.90;;;;;;5031640;28;20044;-67
2024/01/19 00:56:30;;;;;;;0.63;0.63;;;0.50;99.90;;;;;;5013734;28;20133;-67
2024/01/19 00:58:55;;;;;;;1.55;0.60;;;0.50;99.90;;;;;;5014040;28;20095;-60
2024/01/19 01:01:21;;;;;;;0.70;0.70;;;0.50;99.90;;;;;;5014090;28;20131;-60
2024/01/19 01:03:48;;;;;;;0.60;0.60;;;0.70;99.90;;;;;;5031649;28;20144;-59
2024/01/19 01:06:14;;;;;;;0.63;0.57;;;0.60;99.90;;;;;;5031668;28;20037;-60
2024/01/19 01:08:39;;;;;;;0.55;0.55;;;0.70;99.90;;;;;;5031602;28;20044;-60
2024/01/19 01:11:05;;;;;;;0.60;0.60;;;0.70;99.90;;;;;;5031668;28;20034;-59
2024/01/19 01:13:31;;;;;;;1.13;0.80;;;0.60;99.90;;;;;;5032242;28;20052;-61
2024/01/19 01:15:57;;;;;;;0.50;0.50;;;0.60;99.90;;;;;;5035169;28;20037;-60
2024/01/19 01:18:23;;;;;;;0.82;0.55;;;0.60;99.90;;;;;;5017059;28;20124;-60
2024/01/19 01:20:50;;;;;;;0.47;0.47;;;0.60;99.90;;;;;;5017399;28;20045;-61
2024/01/19 01:23:15;;;;;;;0.50;0.50;;;0.60;99.90;;;;;;5035252;28;20128;-60
2024/01/19 01:25:41;;;;;;;0.47;0.47;;;0.60;99.90;;;;;;5017074;28;20441;-60
2024/01/19 01:28:07;;;;;;;0.40;0.40;;;0.60;99.90;;;;;;5035087;28;20393;-60
2024/01/19 01:30:32;;;;;;;0.40;0.40;;;0.50;99.90;;;;;;5034748;28;20073;-59
2024/01/19 01:32:58;;;;;;;0.60;0.60;;;0.40;99.90;;;;;;5034735;28;20048;-60
2024/01/19 01:35:24;;;;;;;1.05;0.40;;;0.30;99.90;;;;;;5034996;28;20029;-60
2024/01/19 01:37:49;;;;;;;0.50;0.50;;;0.20;99.90;;;;;;5034849;28;20048;-60
2024/01/19 01:40:15;;;;;;;0.85;0.70;;;0.20;99.90;;;;;;5034828;28;20034;-62
2024/01/19 01:43:02;;;;;;;0.60;0.60;;;0.00;99.90;;;;;;5034738;28;20049;-62
2024/01/19 01:45:40;;;;;;;0.43;0.43;;;0.00;99.90;;;;;;5034085;28;20064;-60
2024/01/19 01:48:06;;;;;;;0.82;0.60;;;-0.10;99.90;;;;;;5034804;28;20053;-66
2024/01/19 01:50:32;;;;;;;0.95;0.60;;;-0.20;99.90;;;;;;5016915;28;20049;-66
2024/01/19 01:52:57;;;;;;;0.60;0.45;;;-0.20;99.90;;;;;;5034419;28;20042;-66
2024/01/19 01:55:23;;;;;;;1.05;0.70;;;-0.30;99.90;;;;;;5034666;28;20040;-66
2024/01/19 01:57:49;;;;;;;0.68;0.60;;;-0.40;99.90;;;;;;5034298;28;20041;-66
2024/01/19 02:00:17;;;;;;;1.45;0.63;;;-0.40;99.90;;;;;;5016798;28;20096;-67
2024/01/19 02:02:46;;;;;;;0.75;0.60;;;-0.40;99.90;;;;;;5034213;28;20088;-66
2024/01/19 02:05:11;;;;;;;0.70;0.70;;;-0.50;99.90;;;;;;5034440;28;20384;-65
2024/01/19 02:07:37;;;;;;;0.65;0.65;;;-0.50;99.90;;;;;;5034175;28;20045;-66
2024/01/19 02:10:03;;;;;;;0.70;0.70;;;-0.60;99.90;;;;;;5034224;28;20508;-66
2024/01/19 02:12:29;;;;;;;0.52;0.52;;;-0.70;99.90;;;;;;5016587;28;20425;-66
2024/01/19 02:14:58;;;;;;;2.00;0.90;;;-0.70;99.90;;;;;;5034260;28;20059;-65
2024/01/19 02:17:26;;;;;;;1.67;0.88;;;-0.70;99.90;;;;;;5016086;28;20049;-66
2024/01/19 02:19:52;;;;;;;2.08;0.80;;;-0.70;99.90;;;;;;5034175;28;20052;-66
2024/01/19 02:22:19;;;;;;;1.35;0.85;;;-0.70;99.90;;;;;;5034161;28;20041;-66
2024/01/19 02:24:44;;;;;;;1.83;0.80;;;-0.70;99.90;;;;;;5015546;28;20045;-65
2024/01/19 02:27:11;;;;;;;0.68;0.60;;;-0.70;99.90;;;;;;5033968;28;20076;-66
2024/01/19 02:29:37;;;;;;;0.75;0.73;;;-0.80;99.90;;;;;;5015936;28;20050;-66
2024/01/19 02:32:03;;;;;;;0.70;0.50;;;-0.70;99.90;;;;;;5033961;28;20049;-66
2024/01/19 02:34:28;;;;;;;0.90;0.47;;;-0.80;99.90;;;;;;5033920;28;20077;-65
2024/01/19 02:36:54;;;;;;;0.70;0.70;;;-0.80;99.90;;;;;;4999427;28;20048;-66
2024/01/19 02:39:20;;;;;;;0.90;0.60;;;-0.80;99.90;;;;;;5015890;28;20037;-66
2024/01/19 02:41:46;;;;;;;1.00;0.60;;;-0.80;99.90;;;;;;5033511;28;20042;-66
2024/01/19 02:44:18;;;;;;;1.25;0.70;;;-0.80;99.90;;;;;;5033284;28;20061;-67
2024/01/19 02:46:57;;;;;;;0.65;0.65;;;-0.40;99.90;;;;;;5033292;28;20049;-66
2024/01/19 02:49:22;;;;;;;1.42;0.70;;;-0.60;99.90;;;;;;5033629;28;20049;-66
2024/01/19 02:51:48;;;;;;;0.50;0.50;;;-0.50;99.90;;;;;;5033616;28;20499;-66
2024/01/19 02:54:14;;;;;;;0.90;0.77;;;-0.20;99.90;;;;;;5033290;28;20037;-65
2024/01/19 02:56:39;;;;;;;0.75;0.70;;;-0.30;99.90;;;;;;5033419;28;20455;-66
2024/01/19 02:59:05;;;;;;;1.50;0.95;;;-0.20;99.90;;;;;;5033261;28;20041;-64
2024/01/19 03:01:31;;;;;;;0.57;0.57;;;-0.10;99.90;;;;;;5033370;28;20033;-64
2024/01/19 03:03:58;;;;;;;3.08;0.65;;;-0.10;99.90;;;;;;5015321;28;20034;-64
2024/01/19 03:06:23;;;;;;;0.82;0.60;;;0.00;99.90;;;;;;5015614;28;20091;-64
2024/01/19 03:08:49;;;;;;;1.25;0.90;;;0.00;99.90;;;;;;4998859;28;20037;-64
2024/01/19 03:11:15;;;;;;;0.73;0.65;;;0.10;99.90;;;;;;5032869;28;20121;-64
2024/01/19 03:13:41;;;;;;;0.55;0.52;;;0.10;99.90;;;;;;5032833;28;20124;-64
2024/01/19 03:16:07;;;;;;;0.68;0.68;;;0.00;99.90;;;;;;5033093;28;20473;-64
2024/01/19 03:18:33;;;;;;;0.63;0.63;;;0.10;99.90;;;;;;5033029;28;20038;-64
2024/01/19 03:20:58;;;;;;;1.95;0.77;;;0.10;99.90;;;;;;5032656;28;20067;-65
2024/01/19 03:23:24;;;;;;;1.13;0.85;;;0.10;99.90;;;;;;5032715;28;20033;-65
2024/01/19 03:25:51;;;;;;;0.68;0.60;;;0.10;99.90;;;;;;5032936;28;20086;-64
2024/01/19 03:28:17;;;;;;;0.73;0.60;;;0.00;99.90;;;;;;5032814;28;20138;-64
2024/01/19 03:30:42;;;;;;;0.85;0.85;;;0.10;99.90;;;;;;5032795;28;20069;-64
2024/01/19 03:33:08;;;;;;;0.50;0.50;;;0.10;99.90;;;;;;5032779;28;20481;-64
2024/01/19 03:35:34;;;;;;;0.77;0.68;;;0.10;99.90;;;;;;5032754;28;20045;-64
2024/01/19 03:38:00;;;;;;;0.57;0.57;;;0.20;99.90;;;;;;5031969;28;20386;-64
2024/01/19 03:40:25;;;;;;;0.75;0.75;;;0.20;99.90;;;;;;5032652;28;20041;-64
2024/01/19 03:42:51;;;;;;;2.17;0.85;;;0.30;99.90;;;;;;5032703;28;20073;-65
2024/01/19 03:45:23;;;;;;;1.25;0.75;;;0.30;99.90;;;;;;5032061;28;20107;-64
2024/01/19 03:47:48;;;;;;;0.70;0.70;;;0.40;99.90;;;;;;5032546;28;20124;-64
2024/01/19 03:50:14;;;;;;;0.70;0.70;;;0.40;99.90;;;;;;5032284;28;20553;-64
2024/01/19 03:52:40;;;;;;;0.60;0.60;;;0.40;99.90;;;;;;5032454;28;20045;-64
2024/01/19 03:55:06;;;;;;;1.40;0.50;;;1.40;99.90;;;;;;5014410;28;20049;-64
2024/01/19 03:57:32;;;;;;;0.75;0.60;;;0.30;99.90;;;;;;5032343;28;20042;-64
2024/01/19 03:59:58;;;;;;;0.50;0.50;;;0.30;99.90;;;;;;5032349;28;20378;-64
2024/01/19 04:02:24;;;;;;;0.93;0.70;;;0.20;99.90;;;;;;5032339;28;20083;-65
2024/01/19 04:04:49;;;;;;;0.63;0.47;;;0.10;99.90;;;;;;5014671;28;20050;-65
2024/01/19 04:07:15;;;;;;;0.50;0.50;;;0.20;99.90;;;;;;5032014;28;20157;-65
2024/01/19 04:09:41;;;;;;;1.02;0.63;;;0.10;99.90;;;;;;5032351;28;20084;-64
2024/01/19 04:12:15;;;;;;;1.23;0.90;;;0.10;99.90;;;;;;5032171;28;20475;-64
2024/01/19 04:14:42;;;;;;;1.80;0.80;;;0.10;99.90;;;;;;5032181;28;20053;-64
2024/01/19 04:17:09;;;;;;;0.60;0.60;;;0.10;99.90;;;;;;5032161;28;20444;-64
2024/01/19 04:19:35;;;;;;;0.80;0.80;;;0.10;99.90;;;;;;5031932;28;20046;-64
2024/01/19 04:22:01;;;;;;;1.08;0.70;;;0.20;99.90;;;;;;5032128;28;20057;-64
2024/01/19 04:24:27;;;;;;;1.05;0.70;;;0.20;99.90;;;;;;5032124;28;20033;-64
2024/01/19 04:26:52;;;;;;;0.98;0.63;;;0.20;99.90;;;;;;5032077;28;20041;-64
2024/01/19 04:29:18;;;;;;;0.70;0.70;;;0.20;99.90;;;;;;5032256;28;20057;-66
2024/01/19 04:31:44;;;;;;;0.70;0.70;;;0.10;99.90;;;;;;5031849;28;20044;-67
2024/01/19 04:34:10;;;;;;;0.63;0.60;;;0.00;99.90;;;;;;5032008;28;20045;-66
2024/01/19 04:36:36;;;;;;;0.50;0.50;;;-0.10;99.90;;;;;;4997622;28;20048;-66
2024/01/19 04:39:02;;;;;;;0.57;0.57;;;-0.20;99.90;;;;;;5031933;28;20029;-67
2024/01/19 04:41:28;;;;;;;0.55;0.55;;;-0.20;99.90;;;;;;5031833;28;20388;-66
2024/01/19 04:43:53;;;;;;;0.50;0.50;;;-0.30;99.90;;;;;;5013990;28;20045;-66
2024/01/19 04:46:19;;;;;;;1.35;0.68;;;-0.40;99.90;;;;;;5031350;28;20103;-66
2024/01/19 04:48:51;;;;;;;0.73;0.73;;;-0.40;99.90;;;;;;5033494;28;20051;-67
2024/01/19 04:51:16;;;;;;;1.52;0.88;;;-0.50;99.90;;;;;;5035862;28;20112;-66
2024/01/19 04:53:42;;;;;;;0.57;0.57;;;-0.50;99.90;;;;;;5035781;28;20076;-67
2024/01/19 04:56:08;;;;;;;1.13;0.82;;;-0.50;99.90;;;;;;5018039;28;20067;-67
2024/01/19 04:58:35;;;;;;;1.00;0.73;;;-0.60;99.90;;;;;;5001240;28;20056;-67
2024/01/19 05:01:01;;;;;;;0.82;0.60;;;-0.70;99.90;;;;;;5035320;28;20489;-66
2024/01/19 05:03:27;;;;;;;1.20;0.68;;;-0.70;99.90;;;;;;5017879;28;20037;-66
2024/01/19 05:05:53;;;;;;;0.93;0.70;;;-0.80;99.90;;;;;;5017714;28;20080;-66
2024/01/19 05:08:18;;;;;;;2.92;0.82;;;-0.80;99.90;;;;;;5017759;28;20046;-66
2024/01/19 05:10:44;;;;;;;1.67;0.70;;;-0.90;99.90;;;;;;5017362;28;20042;-67
2024/01/19 05:13:10;;;;;;;0.55;0.50;;;-0.90;99.90;;;;;;5035094;28;20049;-67
2024/01/19 05:15:36;;;;;;;1.23;0.63;;;-1.00;99.90;;;;;;5035385;28;20070;-67
2024/01/19 05:18:02;;;;;;;0.60;0.60;;;-1.00;99.90;;;;;;5034993;28;20033;-66
2024/01/19 05:20:28;;;;;;;0.85;0.80;;;-1.10;99.90;;;;;;5017351;28;20060;-59
2024/01/19 05:22:54;;;;;;;1.30;0.77;;;-1.10;99.90;;;;;;5035023;28;20180;-59
2024/01/19 05:25:20;;;;;;;2.33;0.98;;;-1.10;99.90;;;;;;5035137;28;20449;-59
2024/01/19 05:27:53;;;;;;;1.38;0.65;;;-1.10;99.90;;;;;;5035149;28;20413;-60
2024/01/19 05:30:23;;;;;;;1.13;0.70;;;-1.20;99.90;;;;;;5035031;28;20037;-59
2024/01/19 05:32:49;;;;;;;0.50;0.50;;;-1.20;99.90;;;;;;5034972;28;20052;-59
2024/01/19 05:35:15;;;;;;;1.85;0.75;;;-1.20;99.90;;;;;;5035021;28;20469;-59
2024/01/19 05:37:41;;;;;;;1.58;0.65;;;-1.30;99.90;;;;;;5034906;28;20041;-60
2024/01/19 05:40:07;;;;;;;0.50;0.50;;;-1.20;99.90;;;;;;5017154;28;20470;-64
2024/01/19 05:42:33;;;;;;;1.58;0.70;;;-1.20;99.90;;;;;;5034874;28;20034;-64
2024/01/19 05:45:05;;;;;;;0.70;0.70;;;-1.20;99.90;;;;;;5034383;28;20054;-64
2024/01/19 05:47:39;;;;;;;1.83;0.88;;;-1.20;99.90;;;;;;5034745;28;20099;-64
2024/01/19 05:50:05;;;;;;;0.50;0.50;;;-1.30;99.90;;;;;;5000616;28;20121;-64
2024/01/19 05:52:31;;;;;;;0.60;0.60;;;-1.20;99.90;;;;;;5034280;28;20128;-63
2024/01/19 05:54:56;;;;;;;1.17;0.80;;;-1.20;99.90;;;;;;5034705;28;20112;-64
2024/01/19 05:57:22;;;;;;;0.75;0.68;;;-1.10;99.90;;;;;;5034504;28;20092;-63
2024/01/19 05:59:48;;;;;;;1.85;0.80;;;-1.10;99.90;;;;;;5033537;28;20042;-63
2024/01/19 06:02:13;;;;;;;0.77;0.60;;;-1.00;99.90;;;;;;5034461;28;20507;-64
2024/01/19 06:04:41;;;;;;;1.15;0.57;;;-1.00;99.90;;;;;;5034155;28;20033;-65
2024/01/19 06:07:06;;;;;;;0.55;0.55;;;-1.00;99.90;;;;;;5016334;28;20042;-64
2024/01/19 06:09:32;;;;;;;1.08;0.85;;;-0.40;99.90;;;;;;5034019;28;20037;-64
2024/01/19 06:11:58;;;;;;;1.90;0.68;;;-1.00;99.90;;;;;;5034152;28;20046;-64
2024/01/19 06:14:23;;;;;;;1.52;0.73;;;-1.10;99.90;;;;;;5033899;28;20120;-64
2024/01/19 06:16:50;;;;;;;1.63;0.85;;;-1.10;99.90;;;;;;5033875;28;20037;-65
2024/01/19 06:19:15;;;;;;;0.80;0.73;;;-1.10;99.90;;;;;;5034500;28;20752;-64
2024/01/19 06:21:47;;;;;;;1.25;0.80;;;-1.10;99.90;;;;;;5015991;28;20120;-64
2024/01/19 06:24:17;;;;;;;0.80;0.70;;;-1.20;99.90;;;;;;5016348;28;20129;-66
2024/01/19 06:26:46;;;;;;;1.80;0.93;;;-1.20;99.90;;;;;;5033955;28;20080;-64
2024/01/19 06:29:12;;;;;;;1.95;1.10;;;-1.20;99.90;;;;;;5034012;28;20041;-64
2024/01/19 06:31:45;;;;;;;2.05;0.93;;;-1.20;99.90;;;;;;5015914;28;20079;-60
2024/01/19 06:34:12;;;;;;;1.80;0.77;;;-1.10;99.90;;;;;;5033926;28;20624;-59
2024/01/19 06:36:37;;;;;;;1.38;0.93;;;-1.00;99.90;;;;;;5033774;28;20451;-62
2024/01/19 06:39:04;;;;;;;0.88;0.68;;;-1.00;99.90;;;;;;5033807;28;20107;-59
2024/01/19 06:41:30;;;;;;;0.45;0.40;;;-0.90;99.90;;;;;;5033668;28;20037;-61
2024/01/19 06:43:56;;;;;;;1.17;0.90;;;-0.50;99.90;;;;;;5015557;28;20116;-59
2024/01/19 06:46:22;;;;;;;1.02;0.90;;;-0.70;99.90;;;;;;5032991;28;20085;-59
2024/01/19 06:48:54;;;;;;;1.65;1.17;;;-0.20;99.90;;;;;;5015320;28;20052;-59
2024/01/19 06:51:24;;;;;;;0.98;0.90;;;-0.60;99.90;;;;;;5033713;28;20473;-69
2024/01/19 06:53:51;;;;;;;0.75;0.75;;;-0.70;99.90;;;;;;5015780;28;20090;-69
2024/01/19 06:56:16;;;;;;;2.30;0.80;;;-0.60;99.90;;;;;;5007890;28;20116;-70
2024/01/19 06:58:42;;;;;;;1.40;0.70;;;-0.60;99.90;;;;;;5015570;28;20191;-69
2024/01/19 07:01:10;;;;;;;1.10;0.80;;;-0.60;99.90;;;;;;5015403;28;20412;-69
2024/01/19 07:03:35;;;;;;;1.23;0.73;;;-0.60;99.90;;;;;;5015410;28;20037;-70
2024/01/19 07:06:01;;;;;;;1.50;1.00;;;-0.70;99.90;;;;;;5015599;28;20473;-69
2024/01/19 07:08:27;;;;;;;0.90;0.70;;;-0.80;99.90;;;;;;5033081;28;20041;-68
2024/01/19 07:10:52;;;;;;;0.98;0.85;;;-0.70;99.90;;;;;;5032767;28;20033;-71
2024/01/19 07:13:18;;;;;;;2.38;0.85;;;-0.70;99.90;;;;;;5015209;28;20129;-67
2024/01/19 07:15:44;;;;;;;0.73;0.70;;;-0.70;99.90;;;;;;5015033;28;20529;-68
2024/01/19 07:18:11;;;;;;;1.63;0.75;;;-0.70;99.90;;;;;;5015057;28;20056;-68
2024/01/19 07:20:36;;;;;;;2.10;0.90;;;-0.80;99.90;;;;;;5032989;28;20392;-68
2024/01/19 07:23:03;;;;;;;1.23;0.85;;;-0.80;99.90;;;;;;5014971;28;20120;-68
2024/01/19 07:25:29;;;;;;;1.10;0.70;;;-0.80;99.90;;;;;;5014936;28;20046;-68
2024/01/19 07:27:55;;;;;;;2.72;1.17;;;-0.60;99.90;;;;;;5015235;28;20049;-68
2024/01/19 07:30:20;;;;;;;0.57;0.57;;;-0.90;99.90;;;;;;5014913;28;20405;-68
2024/01/19 07:32:46;;;;;;;1.38;0.90;;;-0.80;99.90;;;;;;5014855;28;20748;-68
2024/01/19 07:35:12;;;;;;;2.47;1.10;;;-0.80;99.90;;;;;;5014840;28;20481;-66
2024/01/19 07:37:37;;;;;;;1.02;0.88;;;-0.90;99.90;;;;;;5032585;28;20088;-68
2024/01/19 07:40:03;;;;;;;1.25;0.70;;;-0.90;99.90;;;;;;5032864;28;20207;-65
2024/01/19 07:42:29;;;;;;;1.75;0.98;;;-0.90;99.90;;;;;;5032614;28;20034;-66
2024/01/19 07:45:01;;;;;;;0.70;0.70;;;-0.90;99.90;;;;;;5032198;28;20413;-64
2024/01/19 07:47:27;;;;;;;1.20;0.80;;;-0.90;99.90;;;;;;5014914;28;20049;-64
2024/01/19 07:49:52;;;;;;;1.20;0.82;;;-0.80;99.90;;;;;;5014492;28;20128;-64
2024/01/19 07:52:18;;;;;;;0.82;0.70;;;-0.90;99.90;;;;;;5032527;28;20708;-64
2024/01/19 07:54:44;;;;;;;1.30;0.80;;;-0.80;99.90;;;;;;5014760;28;20053;-64
2024/01/19 07:57:10;;;;;;;1.58;0.88;;;-0.70;99.90;;;;;;5014255;28;20053;-64
2024/01/19 07:59:35;;;;;;;1.15;0.80;;;-0.60;99.90;;;;;;5014546;28;20041;-64
2024/01/19 08:02:03;;;;;;;2.20;0.98;;;-0.60;99.90;;;;;;5032270;28;20075;-64
2024/01/19 08:04:29;;;;;;;1.08;0.85;;;-0.60;99.90;;;;;;5014501;28;20405;-64
2024/01/19 08:06:54;;;;;;;2.80;1.00;;;-0.50;99.90;;;;;;5014441;28;20045;-64
2024/01/19 08:09:20;;;;;;;1.77;0.98;;;-0.50;99.90;;;;;;5031906;28;20037;-63
2024/01/19 08:11:46;;;;;;;2.42;1.25;;;-0.60;99.90;;;;;;5032156;28;20041;-64
2024/01/19 08:14:11;;;;;;;1.85;1.10;;;-0.50;99.90;;;;;;5014110;28;20544;-64
2024/01/19 08:16:37;;;;;;;1.25;0.88;;;-0.50;99.90;;;;;;5032055;28;20048;-64
2024/01/19 08:19:03;;;;;;;1.92;0.95;;;-0.50;99.90;;;;;;5031807;28;20065;-64
2024/01/19 08:21:28;;;;;;;1.17;1.00;;;-0.50;99.90;;;;;;5014353;28;20111;-64
2024/01/19 08:23:56;;;;;;;1.08;0.90;;;-0.50;99.90;;;;;;5036034;28;20079;-63
2024/01/19 08:26:22;;;;;;;0.98;0.77;;;-0.40;99.90;;;;;;5038666;28;20044;-64
2024/01/19 08:28:48;;;;;;;1.75;0.88;;;-0.40;99.90;;;;;;5038717;28;20037;-64
2024/01/19 08:31:14;;;;;;;1.58;1.08;;;-0.30;99.90;;;;;;5038685;28;20401;-63
2024/01/19 08:33:39;;;;;;;1.02;0.75;;;-0.30;99.90;;;;;;5020490;28;20184;-64
2024/01/19 08:36:05;;;;;;;2.05;0.70;;;-0.30;99.90;;;;;;5038497;28;20120;-63
2024/01/19 08:38:31;;;;;;;1.08;0.90;;;-0.30;99.90;;;;;;5038483;28;20052;-64
2024/01/19 08:40:56;;;;;;;2.30;1.02;;;0.20;99.90;;;;;;5038786;28;20042;-63
2024/01/19 08:43:22;;;;;;;1.88;0.98;;;-0.20;99.90;;;;;;5020600;28;20566;-63
2024/01/19 08:45:55;;;;;;;1.35;0.70;;;-0.10;99.90;;;;;;5037811;28;20140;-63
2024/01/19 08:48:20;;;;;;;0.80;0.80;;;-0.10;99.90;;;;;;5020284;28;20037;-64
2024/01/19 08:50:46;;;;;;;1.38;0.93;;;-0.10;99.90;;;;;;5020517;28;20378;-63
2024/01/19 08:53:11;;;;;;;1.27;0.90;;;0.00;99.90;;;;;;5004320;28;20049;-62
2024/01/19 08:55:39;;;;;;;1.95;1.00;;;0.00;99.90;;;;;;5038001;28;20242;-64
2024/01/19 08:58:04;;;;;;;1.45;0.80;;;0.00;99.90;;;;;;5038414;28;20501;-64
2024/01/19 09:00:30;;;;;;;1.50;0.90;;;0.10;99.90;;;;;;5038372;28;20033;-64
2024/01/19 09:02:56;;;;;;;0.70;0.70;;;0.10;99.90;;;;;;5038080;28;20038;-64
2024/01/19 09:05:21;;;;;;;1.63;0.93;;;0.10;99.90;;;;;;5038371;28;20037;-64
2024/01/19 09:07:47;;;;;;;1.05;0.90;;;0.20;99.90;;;;;;5020341;28;20618;-64
2024/01/19 09:10:13;;;;;;;1.88;1.10;;;0.20;99.90;;;;;;5038341;28;20069;-63
2024/01/19 09:12:38;;;;;;;0.75;0.60;;;0.30;99.90;;;;;;5038051;28;20519;-63
2024/01/19 09:15:05;;;;;;;1.67;0.80;;;0.30;99.90;;;;;;5038539;28;20057;-64
2024/01/19 09:17:30;;;;;;;1.58;0.80;;;0.30;99.90;;;;;;5020164;28;20037;-64
2024/01/19 09:19:56;;;;;;;1.45;0.80;;;0.40;99.90;;;;;;5038216;28;20033;-64
2024/01/19 09:22:21;;;;;;;2.10;0.80;;;0.40;99.90;;;;;;5038241;28;20041;-64
2024/01/19 09:24:47;;;;;;;1.48;1.08;;;0.40;99.90;;;;;;5038171;28;20049;-64
2024/01/19 09:27:13;;;;;;;1.85;1.00;;;0.40;99.90;;;;;;5038165;28;20041;-64
2024/01/19 09:29:39;;;;;;;0.95;0.95;;;0.50;99.90;;;;;;5038058;28;20389;-61
2024/01/19 09:32:05;;;;;;;1.15;0.65;;;0.50;99.90;;;;;;5038214;28;20096;-60
2024/01/19 09:34:31;;;;;;;3.22;0.90;;;0.60;99.90;;;;;;5037146;28;20041;-60
2024/01/19 09:36:56;;;;;;;0.70;0.70;;;0.60;99.90;;;;;;5034718;28;20489;-60
2024/01/19 09:39:23;;;;;;;1.65;0.98;;;0.60;99.90;;;;;;5034916;28;20121;-61
2024/01/19 09:42:06;;;;;;;1.02;0.70;;;0.60;99.90;;;;;;5034957;28;20052;-60
2024/01/19 09:44:36;;;;;;;2.15;1.10;;;0.60;99.90;;;;;;5034537;28;20087;-61
2024/01/19 09:47:24;;;;;;;3.40;1.20;;;0.70;99.90;;;;;;5014980;28;20054;-60
2024/01/19 09:50:05;;;;;;;3.10;1.50;;;0.70;99.90;;;;;;5014713;28;20049;-61
2024/01/19 09:52:39;;;;;;;2.67;1.30;;;0.80;99.90;;;;;;5014798;28;20125;-60
2024/01/19 09:55:05;;;;;;;0.70;0.70;;;0.80;99.90;;;;;;5014826;28;20077;-60
2024/01/19 09:57:34;;;;;;;1.55;0.82;;;0.80;99.90;;;;;;4996687;28;20108;-61
2024/01/19 10:00:00;;;;;;;1.98;0.95;;;0.80;99.90;;;;;;5014752;28;20038;-65
2024/01/19 10:02:27;;;;;;;1.02;0.80;;;1.20;99.90;;;;;;4996905;28;20383;-66
2024/01/19 10:04:53;;;;;;;1.48;1.10;;;0.90;99.90;;;;;;5014496;28;20042;-65
2024/01/19 10:07:20;;;;;;;2.15;1.40;;;0.90;99.90;;;;;;5014352;28;20509;-65
2024/01/19 10:09:50;;;;;;;1.23;0.70;;;0.90;99.90;;;;;;5014551;28;20037;-65
2024/01/19 10:12:18;;;;;;;1.07;0.83;;;1.00;99.90;;;;;;5014096;28;20080;-65
2024/01/19 10:14:44;;;;;;;0.63;0.60;;;1.00;99.90;;;;;;5013029;28;20373;-66
2024/01/19 10:17:10;;;;;;;1.90;1.02;;;1.10;99.90;;;;;;5013901;28;20133;-65
2024/01/19 10:19:37;;;;;;;2.38;1.00;;;1.20;99.90;;;;;;5014272;28;20489;-66
2024/01/19 10:22:26;;;;;;;1.80;1.15;;;1.10;99.90;;;;;;4996376;28;20060;-65
2024/01/19 10:25:00;;;;;;;2.20;1.20;;;1.10;99.90;;;;;;5014071;28;20038;-65
2024/01/19 10:27:51;;;;;;;1.45;0.90;;;1.70;99.90;;;;;;4996526;28;20460;-65
2024/01/19 10:30:27;;;;;;;1.13;1.00;;;1.20;99.90;;;;;;5013777;28;20061;-65
2024/01/19 10:33:06;;;;;;;1.13;1.00;;;1.20;99.90;;;;;;5012671;28;20508;-65
2024/01/19 10:35:32;;;;;;;3.03;1.05;;;1.30;99.90;;;;;;5014202;28;20588;-65
2024/01/19 10:38:05;;;;;;;1.35;0.77;;;1.40;99.90;;;;;;4996249;28;20124;-65
2024/01/19 10:40:33;;;;;;;1.85;1.13;;;1.40;99.90;;;;;;5014209;28;20041;-68
2024/01/19 10:42:59;;;;;;;0.82;0.80;;;1.40;99.90;;;;;;5013675;28;20037;-68
2024/01/19 10:45:35;;;;;;;1.80;1.10;;;1.50;99.90;;;;;;5001972;28;20057;-68
2024/01/19 10:48:13;;;;;;;1.95;1.00;;;1.50;99.90;;;;;;5015568;28;20049;-67
2024/01/19 10:50:39;;;;;;;1.42;1.33;;;1.60;99.90;;;;;;5015921;28;20099;-68
2024/01/19 10:53:12;;;;;;;1.42;1.10;;;1.70;99.90;;;;;;5015368;28;20045;-69
2024/01/19 10:55:46;;;;;;;1.67;1.05;;;1.70;99.90;;;;;;4999402;28;20053;-70
2024/01/19 10:58:13;;;;;;;1.90;1.02;;;1.90;99.90;;;;;;5015412;28;20486;-68
2024/01/19 11:00:39;;;;;;;1.67;0.85;;;1.80;99.90;;;;;;5015455;28;20425;-68
2024/01/19 11:03:05;;;;;;;1.15;1.02;;;1.80;99.90;;;;;;5015471;28;20065;-71
2024/01/19 11:05:32;;;;;;;1.50;1.00;;;1.90;99.90;;;;;;5015291;28;20049;-69
2024/01/19 11:07:59;;;;;;;1.60;1.30;;;2.00;99.90;;;;;;5033400;28;20045;-68
2024/01/19 11:10:26;;;;;;;1.02;0.90;;;2.00;99.90;;;;;;5015572;28;20046;-65
2024/01/19 11:13:00;;;;;;;2.22;1.30;;;2.10;99.90;;;;;;5033232;28;20053;-65
2024/01/19 11:15:38;;;;;;;2.00;1.10;;;2.10;99.90;;;;;;5033201;28;20041;-65
2024/01/19 11:18:05;;;;;;;1.85;1.00;;;2.20;99.90;;;;;;5032680;28;20048;-65
2024/01/19 11:20:33;;;;;;;2.58;1.20;;;2.30;99.90;;;;;;5032841;28;20041;-66
2024/01/19 11:23:00;;;;;;;1.10;0.73;;;2.40;99.90;;;;;;5032813;28;20073;-66
2024/01/19 11:26:01;;;;;;;1.98;1.20;;;2.40;99.90;;;;;;5032889;28;20029;-66
2024/01/19 11:28:48;;;;;;;1.98;1.20;;;2.50;99.90;;;;;;5032942;28;20161;-66
2024/01/19 11:31:19;;;;;;;4.72;1.35;;;2.60;99.90;;;;;;5032555;28;20087;-65
2024/01/19 11:33:45;;;;;;;1.00;0.90;;;2.70;99.90;;;;;;5014879;28;20041;-66
2024/01/19 11:36:32;;;;;;;1.40;1.17;;;2.70;99.90;;;;;;5032768;28;20044;-66
2024/01/19 11:38:58;;;;;;;1.35;1.13;;;2.80;99.90;;;;;;5032445;28;20053;-66
2024/01/19 11:41:46;;;;;;;1.60;1.33;;;3.00;99.90;;;;;;5032804;28;20116;-67
2024/01/19 11:44:45;;;;;;;2.83;1.10;;;3.20;99.90;;;;;;5032413;28;20045;-67
2024/01/19 11:47:36;;;;;;;3.35;1.23;;;;;;;;;;5032011;28;20592;-68
2024/01/19 11:50:03;;;;;;;1.88;1.30;;;;;;;;;;5032742;28;20089;-65
2024/01/19 11:52:36;;;;;;;2.72;1.50;;;3.70;99.90;;;;;;5032650;28;20512;-66
2024/01/19 11:55:26;;;;;;;3.08;1.17;;;3.80;99.90;;;;;;4998141;28;20452;-66
2024/01/19 11:57:53;;;;;;;1.42;0.98;;;3.90;99.90;;;;;;5031686;28;20497;-66
2024/01/19 12:00:19;;;;;;;3.50;1.75;;;4.50;99.90;;;;;;5014849;28;20049;-65
2024/01/19 12:02:46;;;;;;;1.83;1.30;;;4.50;99.90;;;;;;5032512;28;20041;-65
2024/01/19 12:05:12;;;;;;;2.65;1.02;;;4.70;99.90;;;;;;5032365;28;20129;-65
2024/01/19 12:07:39;;;;;;;1.38;0.90;;;5.20;99.90;;;;;;5032287;28;20175;-65
2024/01/19 12:10:16;;;;;;;1.48;1.17;;;5.30;99.90;;;;;;5014290;28;20068;-65
2024/01/19 12:12:42;;;;;;;1.67;1.20;;;5.40;99.90;;;;;;5032186;28;20045;-65
2024/01/19 12:15:09;;;;;;;1.67;1.13;;;5.50;99.90;;;;;;5032327;28;20125;-65
2024/01/19 12:17:40;;;;;;;2.72;1.35;;;5.50;99.90;;;;;;5032185;28;20048;-66
2024/01/19 12:20:09;;;;;;;1.50;1.17;;;5.60;99.90;;;;;;5031901;28;20135;-64
2024/01/19 12:22:35;;;;;;;1.52;1.10;;;5.80;99.90;;;;;;5014446;28;20045;-62
2024/01/19 12:25:18;;;;;;;2.92;1.08;;;5.90;99.90;;;;;;5014134;28;20087;-62
2024/01/19 12:27:44;;;;;;;1.00;0.90;;;6.10;99.90;;;;;;5032190;28;20096;-60
2024/01/19 12:30:12;;;;;;;1.77;1.13;;;5.90;99.90;;;;;;5030696;28;20037;-61
2024/01/19 12:32:38;;;;;;;0.90;0.90;;;5.70;99.90;;;;;;5032112;28;20076;-61
2024/01/19 12:35:04;;;;;;;1.20;0.90;;;5.30;99.90;;;;;;5031779;28;20072;-60
2024/01/19 12:37:30;;;;;;;2.30;1.17;;;5.30;99.90;;;;;;5031929;28;20038;-60
2024/01/19 12:40:15;;;;;;;1.17;1.02;;;5.00;99.90;;;;;;5031899;28;20037;-61
2024/01/19 12:42:41;;;;;;;1.75;1.27;;;4.80;99.90;;;;;;5031608;28;20056;-60
2024/01/19 12:45:08;;;;;;;1.10;1.00;;;4.70;99.90;;;;;;5031666;28;20061;-61
2024/01/19 12:47:51;;;;;;;1.83;0.80;;;4.70;99.90;;;;;;5013972;28;20050;-60
2024/01/19 12:50:17;;;;;;;1.92;1.10;;;4.90;99.90;;;;;;5032120;28;20100;-61
2024/01/19 12:52:43;;;;;;;1.55;1.00;;;4.70;99.90;;;;;;5013811;28;20125;-60
2024/01/19 12:55:09;;;;;;;1.13;1.00;;;4.50;99.90;;;;;;5013907;28;20124;-60